createdAt,value
2022-10-28T00:01:47.300Z,11.50
2022-10-28T00:04:16.481Z,11.57
2022-10-28T00:06:47.040Z,10.97
2022-10-28T00:09:16.140Z,11.36
2022-10-28T00:11:45.491Z,11.58
2022-10-28T00:14:15.194Z,11.47
2022-10-28T00:16:44.302Z,11.34
2022-10-28T00:19:15.019Z,11.51
2022-10-28T00:21:45.083Z,11.61
2022-10-28T00:24:15.894Z,11.70
2022-10-28T00:26:46.052Z,11.38
2022-10-28T00:29:17.505Z,11.38
2022-10-28T00:31:47.219Z,11.53
2022-10-28T00:34:17.961Z,11.43
2022-10-28T00:36:48.394Z,11.25
2022-10-28T00:39:20.686Z,11.34
2022-10-28T00:41:52.211Z,11.58
2022-10-28T00:44:57.808Z,11.45
2022-10-28T00:47:39.832Z,11.42
2022-10-28T00:50:17.805Z,11.44
2022-10-28T00:52:49.913Z,11.39
2022-10-28T00:55:22.300Z,11.47
2022-10-28T00:57:56.727Z,11.42
2022-10-28T01:00:27.188Z,11.45
2022-10-28T01:02:57.023Z,11.51
2022-10-28T01:05:28.649Z,11.11
2022-10-28T01:08:00.730Z,11.40
2022-10-28T01:10:42.979Z,11.44
2022-10-28T01:13:16.844Z,11.38
2022-10-28T01:15:53.696Z,11.30
2022-10-28T01:18:36.512Z,11.54
2022-10-28T01:21:54.128Z,11.49
2022-10-28T01:24:38.228Z,11.56
2022-10-28T01:27:38.347Z,11.37
2022-10-28T01:30:15.183Z,11.37
2022-10-28T01:32:53.984Z,11.48
2022-10-28T01:35:28.850Z,11.46
2022-10-28T01:38:13.998Z,11.60
2022-10-28T01:40:48.125Z,11.48
2022-10-28T01:43:25.364Z,11.63
2022-10-28T01:46:01.986Z,11.33
2022-10-28T01:48:40.662Z,11.35
2022-10-28T01:51:15.464Z,11.28
2022-10-28T01:53:48.855Z,11.04
2022-10-28T01:56:22.488Z,11.40
2022-10-28T01:58:52.082Z,11.43
2022-10-28T02:01:22.388Z,11.44
2022-10-28T02:03:54.376Z,11.39
2022-10-28T02:06:26.591Z,11.36
2022-10-28T02:09:05.204Z,11.48
2022-10-28T02:11:57.989Z,11.45
2022-10-28T02:14:40.438Z,11.61
2022-10-28T02:17:17.166Z,11.46
2022-10-28T02:19:51.768Z,11.37
2022-10-28T02:22:24.555Z,11.11
2022-10-28T02:25:03.403Z,11.19
2022-10-28T02:27:37.683Z,11.14
2022-10-28T02:30:10.721Z,11.33
2022-10-28T02:32:45.657Z,11.26
2022-10-28T02:35:19.972Z,11.27
2022-10-28T02:37:52.020Z,11.00
2022-10-28T02:40:24.215Z,10.97
2022-10-28T02:42:57.850Z,11.07
2022-10-28T02:45:29.775Z,11.00
2022-10-28T02:48:03.002Z,11.07
2022-10-28T02:50:36.584Z,11.26
2022-10-28T02:53:10.305Z,11.35
2022-10-28T02:55:44.825Z,11.14
2022-10-28T02:58:14.092Z,11.04
2022-10-28T03:00:45.968Z,11.37
2022-10-28T03:03:15.393Z,11.15
2022-10-28T03:05:46.245Z,11.08
2022-10-28T03:08:15.306Z,11.08
2022-10-28T03:10:44.271Z,11.07
2022-10-28T03:13:13.321Z,11.13
2022-10-28T03:15:42.357Z,11.20
2022-10-28T03:18:11.293Z,11.17
2022-10-28T03:20:40.346Z,11.13
2022-10-28T03:23:10.632Z,11.02
2022-10-28T03:25:39.708Z,10.85
2022-10-28T03:28:08.701Z,11.21
2022-10-28T03:30:37.970Z,10.97
2022-10-28T03:33:06.983Z,10.86
2022-10-28T03:35:35.957Z,11.27
2022-10-28T03:38:05.023Z,11.23
2022-10-28T03:40:35.505Z,11.10
2022-10-28T03:43:04.504Z,11.23
2022-10-28T03:45:33.869Z,10.98
2022-10-28T03:48:02.796Z,11.17
2022-10-28T03:50:32.654Z,11.29
2022-10-28T03:53:01.486Z,11.26
2022-10-28T03:55:30.448Z,11.14
2022-10-28T03:58:03.492Z,11.02
2022-10-28T04:00:33.366Z,11.04
2022-10-28T04:03:02.693Z,10.92
2022-10-28T04:05:31.694Z,11.03
2022-10-28T04:08:00.578Z,10.93
2022-10-28T04:10:29.465Z,11.10
2022-10-28T04:13:02.342Z,10.83
2022-10-28T04:15:31.658Z,10.67
2022-10-28T04:18:00.659Z,10.65
2022-10-28T04:20:30.389Z,10.73
2022-10-28T04:22:59.770Z,10.86
2022-10-28T04:25:30.264Z,10.61
2022-10-28T04:27:59.276Z,10.63
2022-10-28T04:30:30.022Z,10.78
2022-10-28T04:32:58.884Z,10.75
2022-10-28T04:35:28.782Z,10.87
2022-10-28T04:37:57.864Z,10.81
2022-10-28T04:40:26.849Z,10.81
2022-10-28T04:42:56.103Z,10.68
2022-10-28T04:45:25.809Z,10.65
2022-10-28T04:47:59.932Z,10.85
2022-10-28T04:50:29.157Z,11.03
2022-10-28T04:52:58.349Z,11.17
2022-10-28T04:55:27.241Z,11.15
2022-10-28T04:57:57.284Z,11.27
2022-10-28T05:00:27.594Z,10.93
2022-10-28T05:02:57.033Z,10.94
2022-10-28T05:05:27.558Z,11.09
2022-10-28T05:07:56.581Z,11.02
2022-10-28T05:10:26.071Z,11.26
2022-10-28T05:12:55.190Z,11.52
2022-10-28T05:15:24.514Z,11.62
2022-10-28T05:17:54.855Z,11.68
2022-10-28T05:20:24.696Z,11.51
2022-10-28T05:22:57.158Z,11.33
2022-10-28T05:25:27.122Z,11.46
2022-10-28T05:28:00.442Z,11.25
2022-10-28T05:30:29.715Z,11.37
2022-10-28T05:33:02.795Z,11.60
2022-10-28T05:35:32.416Z,11.35
2022-10-28T05:38:02.873Z,11.33
2022-10-28T05:40:32.733Z,11.26
2022-10-28T05:43:01.716Z,11.57
2022-10-28T05:48:04.968Z,11.59
2022-10-28T05:50:34.838Z,11.44
2022-10-28T05:53:05.330Z,11.61
2022-10-28T09:07:17.986Z,14.13
2022-10-28T09:09:48.627Z,14.87
2022-10-28T09:12:28.852Z,14.77
2022-10-28T09:15:20.626Z,14.17
2022-10-28T09:17:55.381Z,14.65
2022-10-28T09:20:34.673Z,14.18
2022-10-28T09:23:15.975Z,14.61
2022-10-28T09:25:55.910Z,14.41
2022-10-28T09:28:40.077Z,15.32
2022-10-28T09:31:15.961Z,15.30
2022-10-28T09:33:57.800Z,15.07
2022-10-28T09:36:38.993Z,16.08
2022-10-28T09:39:18.142Z,16.48
2022-10-28T09:41:49.145Z,16.16
2022-10-28T09:44:25.099Z,16.00
2022-10-28T09:46:58.082Z,15.91
2022-10-28T09:49:33.612Z,16.13
2022-10-28T09:52:07.063Z,15.49
2022-10-28T09:54:43.632Z,15.98
2022-10-28T09:57:16.500Z,15.78
2022-10-28T09:59:47.746Z,15.16
2022-10-28T10:02:28.344Z,16.14
2022-10-28T10:04:59.519Z,16.34
2022-10-28T10:07:36.737Z,17.67
2022-10-28T10:10:15.255Z,18.08
2022-10-28T10:12:47.456Z,19.57
2022-10-28T10:15:29.488Z,18.79
2022-10-28T10:18:01.878Z,18.10
2022-10-28T10:20:48.757Z,17.30
2022-10-28T10:23:31.252Z,18.86
2022-10-28T10:26:08.047Z,18.41
2022-10-28T10:28:45.702Z,18.65
2022-10-28T10:31:21.615Z,19.61
2022-10-28T10:33:53.714Z,19.85
2022-10-28T10:36:28.491Z,21.89
2022-10-28T10:38:59.550Z,20.43
2022-10-28T10:41:37.854Z,20.75
2022-10-28T10:44:31.953Z,20.67
2022-10-28T10:47:31.200Z,22.34
2022-10-28T10:50:23.054Z,23.11
2022-10-28T10:52:56.648Z,20.44
2022-10-28T10:55:34.268Z,20.48
2022-10-28T10:58:37.080Z,20.76
2022-10-28T11:01:09.689Z,24.56
2022-10-28T11:03:49.016Z,26.20
2022-10-28T11:06:25.270Z,24.80
2022-10-28T11:09:00.750Z,25.39
2022-10-28T11:11:37.393Z,23.17
2022-10-28T11:14:22.231Z,22.07
2022-10-28T11:16:53.833Z,24.08
2022-10-28T11:19:29.625Z,26.81
2022-10-28T11:22:22.666Z,27.92
2022-10-28T11:25:10.922Z,26.69
2022-10-28T11:27:53.815Z,27.30
2022-10-28T11:30:37.543Z,27.97
2022-10-28T11:33:29.619Z,26.77
2022-10-28T11:36:13.932Z,25.75
2022-10-28T11:39:14.762Z,25.92
2022-10-28T11:41:54.540Z,24.29
2022-10-28T11:44:43.512Z,26.98
2022-10-28T11:47:31.627Z,21.85
2022-10-28T11:50:30.230Z,20.64
2022-10-28T11:53:16.354Z,25.10
2022-10-28T11:55:54.128Z,24.55
2022-10-28T11:58:34.922Z,27.42
2022-10-28T12:01:33.410Z,24.70
2022-10-28T12:04:27.514Z,18.56
2022-10-28T12:07:26.877Z,21.12
2022-10-28T12:10:21.378Z,22.85
2022-10-28T12:13:01.824Z,19.96
2022-10-28T12:15:39.119Z,18.23
2022-10-28T12:18:22.352Z,17.86
2022-10-28T12:21:00.893Z,17.44
2022-10-28T12:23:34.987Z,18.14
2022-10-28T12:26:09.689Z,19.93
2022-10-28T12:28:44.828Z,19.71
2022-10-28T12:31:21.929Z,21.71
2022-10-28T12:33:54.731Z,22.60
2022-10-28T12:36:34.316Z,21.32
2022-10-28T12:39:12.433Z,20.03
2022-10-28T12:41:51.498Z,18.03
2022-10-28T12:44:22.658Z,19.54
2022-10-28T12:47:03.349Z,21.36
2022-10-28T12:49:43.142Z,21.43
2022-10-28T12:52:26.798Z,17.35
2022-10-28T12:55:04.370Z,16.54
2022-10-28T12:57:37.154Z,16.75
2022-10-28T13:00:17.508Z,17.20
2022-10-28T13:02:53.449Z,17.40
2022-10-28T13:05:28.258Z,16.61
2022-10-28T13:08:32.301Z,16.79
2022-10-28T13:11:30.389Z,16.55
2022-10-28T13:14:08.094Z,16.28
2022-10-28T13:16:51.086Z,15.63
2022-10-28T13:19:39.951Z,16.16
2022-10-28T13:22:39.467Z,15.06
2022-10-28T13:25:27.874Z,15.60
2022-10-28T13:27:59.330Z,15.22
2022-10-28T13:30:32.223Z,15.22
2022-10-28T13:33:07.349Z,15.07
2022-10-28T13:35:38.820Z,15.19
2022-10-28T13:38:12.711Z,14.70
2022-10-28T13:41:12.206Z,14.82
2022-10-28T13:44:15.578Z,14.64
2022-10-28T13:47:19.128Z,14.66
2022-10-28T13:50:33.895Z,14.53
2022-10-28T13:53:21.873Z,14.66
2022-10-28T13:55:57.754Z,14.25
2022-10-28T13:58:29.494Z,13.59
2022-10-28T14:01:39.492Z,13.77
2022-10-28T14:04:26.556Z,13.16
2022-10-28T14:07:05.279Z,13.89
2022-10-28T14:09:37.201Z,13.90
2022-10-28T14:12:23.814Z,13.94
2022-10-28T14:15:02.010Z,13.00
2022-10-28T14:17:42.533Z,13.38
2022-10-28T14:20:35.076Z,13.33
2022-10-28T14:23:38.060Z,13.63
2022-10-28T14:26:07.768Z,13.16
2022-10-28T14:28:56.492Z,13.49
2022-10-28T14:31:58.091Z,12.53
2022-10-28T14:34:45.710Z,13.00
2022-10-28T14:37:39.286Z,13.15
2022-10-28T14:40:23.742Z,13.51
2022-10-28T14:43:14.595Z,13.15
2022-10-28T14:45:55.996Z,12.79
2022-10-28T14:48:54.578Z,13.40
2022-10-28T14:51:26.601Z,13.12
2022-10-28T14:53:59.739Z,13.27
2022-10-28T14:56:31.953Z,13.29
2022-10-28T14:59:15.801Z,13.40
2022-10-28T15:01:58.770Z,13.34
2022-10-28T15:04:30.621Z,13.09
2022-10-28T15:07:00.940Z,13.32
2022-10-28T15:09:32.807Z,13.03
2022-10-28T15:12:06.906Z,13.59
2022-10-28T15:14:38.417Z,13.49
2022-10-28T15:17:19.022Z,13.33
2022-10-28T15:19:51.927Z,13.53
2022-10-28T15:22:23.383Z,13.63
2022-10-28T15:25:01.588Z,13.37
2022-10-28T15:27:34.587Z,13.50
2022-10-28T15:30:14.521Z,13.67
2022-10-28T15:32:44.620Z,13.51
2022-10-28T15:35:41.234Z,13.76
2022-10-28T15:38:44.642Z,13.50
2022-10-28T15:41:42.569Z,13.61
2022-10-28T15:44:31.982Z,13.57
2022-10-28T15:47:17.330Z,13.59
2022-10-28T15:50:03.308Z,13.70
2022-10-28T15:52:41.081Z,13.16
2022-10-28T15:55:47.930Z,13.60
2022-10-28T15:58:35.837Z,13.59
2022-10-28T16:01:11.852Z,13.55
2022-10-28T16:03:47.439Z,13.10
2022-10-28T16:06:28.045Z,13.40
2022-10-28T16:09:17.544Z,13.01
2022-10-28T16:11:50.354Z,13.00
2022-10-28T16:14:34.814Z,12.87
2022-10-28T16:17:15.308Z,12.77
2022-10-28T16:19:50.942Z,12.14
2022-10-28T16:22:22.756Z,12.66
2022-10-28T16:24:54.902Z,12.52
2022-10-28T16:27:26.177Z,12.70
2022-10-28T16:29:55.963Z,12.59
2022-10-28T16:32:29.544Z,12.44
2022-10-28T16:35:03.154Z,12.20
2022-10-28T16:37:36.736Z,12.59
2022-10-28T16:40:30.773Z,12.59
2022-10-28T16:43:03.184Z,12.57
2022-10-28T16:45:32.641Z,12.59
2022-10-28T16:48:02.746Z,12.49
2022-10-28T16:50:32.928Z,12.36
2022-10-28T16:53:02.982Z,12.35
2022-10-28T16:55:39.881Z,12.38
2022-10-28T19:30:12.386Z,12.64
2022-10-28T19:32:48.590Z,11.97
2022-10-28T19:35:21.900Z,12.69
2022-10-28T19:37:54.278Z,12.07
2022-10-28T19:40:24.096Z,12.31
2022-10-28T19:43:03.846Z,11.79
2022-10-28T19:45:42.129Z,12.48
2022-10-28T19:48:11.737Z,12.50
2022-10-28T19:50:41.449Z,12.83
2022-10-28T19:53:10.783Z,12.24
2022-10-28T19:55:40.066Z,12.51
2022-10-28T19:58:22.282Z,12.61
2022-10-28T20:01:23.893Z,13.05
2022-10-28T20:04:04.664Z,11.91
2022-10-28T20:06:36.155Z,13.09
2022-10-28T20:09:12.824Z,12.97
2022-10-28T20:11:44.910Z,11.89
2022-10-28T20:14:14.322Z,12.74
2022-10-28T20:16:46.584Z,12.56
2022-10-28T20:19:17.015Z,12.65
2022-10-28T20:21:58.295Z,11.93
2022-10-28T20:24:28.300Z,12.05
2022-10-28T20:26:57.712Z,12.64
2022-10-28T20:29:35.274Z,12.44
2022-10-28T20:32:11.960Z,12.47
2022-10-28T20:34:50.482Z,12.41
2022-10-28T20:37:19.951Z,12.65
2022-10-28T20:39:53.650Z,11.93
2022-10-28T20:42:34.876Z,11.82
2022-10-28T20:45:34.279Z,12.55
2022-10-28T20:48:06.042Z,12.55
2022-10-28T20:50:36.164Z,12.55
2022-10-28T20:53:05.794Z,12.54
2022-10-28T20:55:35.451Z,11.46
2022-10-28T20:58:07.079Z,12.31
2022-10-28T21:00:36.805Z,12.59
2022-10-28T21:03:16.677Z,12.57
2022-10-28T21:05:45.736Z,12.64
2022-10-28T21:08:15.089Z,12.41
2022-10-28T21:10:43.979Z,12.85
2022-10-28T21:13:15.333Z,11.66
2022-10-28T21:15:54.567Z,12.86
2022-10-28T21:18:37.913Z,12.81
2022-10-28T21:21:11.644Z,12.35
2022-10-28T21:23:46.195Z,11.93
2022-10-28T21:26:21.666Z,12.05
2022-10-28T21:28:52.079Z,12.79
2022-10-28T21:31:25.135Z,11.74
2022-10-28T21:33:55.816Z,12.10
2022-10-28T21:36:31.113Z,12.67
2022-10-28T21:39:00.161Z,12.89
2022-10-28T21:41:57.883Z,13.02
2022-10-28T21:44:26.966Z,12.37
2022-10-28T21:46:56.551Z,12.84
2022-10-28T21:49:28.103Z,12.48
2022-10-28T21:51:59.586Z,12.36
2022-10-28T21:54:39.946Z,12.10
2022-10-28T21:57:09.346Z,12.36
2022-10-28T21:59:38.674Z,12.73
2022-10-28T22:02:07.811Z,12.80
2022-10-28T22:04:39.773Z,12.72
2022-10-28T22:07:10.877Z,11.81
2022-10-28T22:09:40.734Z,11.50
2022-10-28T22:12:10.574Z,12.72
2022-10-28T22:14:40.339Z,12.39
2022-10-28T22:17:09.874Z,12.20
2022-10-28T22:19:40.747Z,12.31
2022-10-28T22:22:10.400Z,12.87
2022-10-28T22:24:42.700Z,12.83
2022-10-28T22:27:11.702Z,12.70
2022-10-28T22:29:40.921Z,12.67
2022-10-28T22:32:10.310Z,12.50
2022-10-28T22:34:43.558Z,11.78
2022-10-28T22:37:16.244Z,12.85
2022-10-28T22:40:00.799Z,12.30
2022-10-28T22:42:36.435Z,12.15
2022-10-28T22:45:19.530Z,12.16
2022-10-28T22:47:50.679Z,11.48
2022-10-28T22:50:21.289Z,12.73
2022-10-28T22:52:50.546Z,12.26
2022-10-28T22:55:22.195Z,12.52
2022-10-28T22:57:51.299Z,12.19
2022-10-28T23:00:31.607Z,12.66
2022-10-28T23:03:02.470Z,12.80
2022-10-28T23:05:43.553Z,11.85
2022-10-28T23:08:18.392Z,12.88
2022-10-28T23:10:50.159Z,12.79
2022-10-28T23:13:54.166Z,12.66
2022-10-28T23:16:22.338Z,12.51
2022-10-28T23:18:53.084Z,12.80
2022-10-28T23:21:25.069Z,12.97
2022-10-28T23:24:00.888Z,12.37
2022-10-28T23:26:30.953Z,12.89
2022-10-28T23:29:01.323Z,12.90
2022-10-28T23:31:30.732Z,12.80
2022-10-28T23:34:02.839Z,12.64
2022-10-28T23:36:34.858Z,12.85
2022-10-28T23:39:05.666Z,12.83
2022-10-28T23:41:37.990Z,12.88
2022-10-28T23:44:08.707Z,12.72
2022-10-28T23:47:08.390Z,12.78
2022-10-28T23:49:38.813Z,12.17
2022-10-28T23:52:10.935Z,11.83
2022-10-28T23:54:39.918Z,12.57
2022-10-28T23:57:13.019Z,12.48
2022-10-28T23:59:41.993Z,12.73
